Time;durP1;ratioP1;P1;durP2;ratioP2;P2;SDS_P1;SDS_P2;PMS_P1;PMS_P2;Temp;Humidity;BMP_temperature;BMP_pressure;BME280_temperature;BME280_humidity;BME280_pressure;Samples;Min_cycle;Max_cycle;Signal;HPM_P1;HPM_P2
2022/05/23 00:00:17;;;;;;;3.72;2.67;;;;;;;;;;1731855;81;21112;-74
2022/05/23 00:02:45;;;;;;;3.35;2.90;;;;;;;;;;1721703;82;21148;-74
2022/05/23 00:05:11;;;;;;;4.65;2.90;;;;;;;;;;1737338;81;21036;-74
2022/05/23 00:07:40;;;;;;;4.53;2.90;;;;;;;;;;1739978;81;21112;-75
2022/05/23 00:10:07;;;;;;;4.37;2.85;;;;;;;;;;1726101;82;21060;-74
2022/05/23 00:12:36;;;;;;;4.45;2.87;;;;;;;;;;1724663;82;21595;-73
2022/05/23 00:15:04;;;;;;;4.60;2.60;;;;;;;;;;1721279;82;21127;-73
2022/05/23 00:17:30;;;;;;;4.35;2.72;;;;;;;;;;1730312;82;21541;-73
2022/05/23 00:19:56;;;;;;;3.60;2.60;;;;;;;;;;1738889;81;21101;-73
2022/05/23 00:22:22;;;;;;;4.00;2.75;;;;;;;;;;1732310;82;21056;-73
2022/05/23 00:24:49;;;;;;;3.47;2.70;;;;;;;;;;1738443;82;21053;-73
2022/05/23 00:27:17;;;;;;;3.75;2.50;;;;;;;;;;1722755;81;21075;-73
2022/05/23 00:29:45;;;;;;;4.42;2.80;;;;;;;;;;1727100;82;21008;-73
2022/05/23 00:37:41;;;;;;;3.30;2.70;;;;;;;;;;1740991;81;21092;-73
2022/05/23 00:40:11;;;;;;;3.62;2.70;;;;;;;;;;1724582;82;21088;-74
2022/05/23 00:45:22;;;;;;;3.92;2.65;;;;;;;;;;1711341;82;21564;-72
2022/05/23 00:47:50;;;;;;;3.52;2.75;;;;;;;;;;1729032;81;21040;-72
2022/05/23 00:50:17;;;;;;;3.90;3.00;;;;;;;;;;1727942;81;21188;-72
2022/05/23 00:52:46;;;;;;;3.37;2.60;;;;;;;;;;1732280;82;21049;-73
2022/05/23 00:55:14;;;;;;;3.75;2.52;;;;;;;;;;1738896;82;21124;-72
2022/05/23 00:57:42;;;;;;;4.90;3.35;;;;;;;;;;1742222;81;21520;-73
2022/05/23 01:00:09;;;;;;;3.65;2.83;;;;;;;;;;1726601;81;21012;-75
2022/05/23 01:05:32;;;;;;;3.52;2.70;;;;;;;;;;1701680;83;21570;-73
2022/05/23 01:07:59;;;;;;;3.33;2.62;;;;;;;;;;1691263;84;21086;-73
2022/05/23 01:10:25;;;;;;;3.52;2.62;;;;;;;;;;1683441;83;21180;-73
2022/05/23 01:12:53;;;;;;;5.25;3.30;;;;;;;;;;1669850;84;21559;-74
2022/05/23 01:15:21;;;;;;;3.83;2.80;;;;;;;;;;1650356;84;21159;-73
2022/05/23 01:17:48;;;;;;;3.47;2.75;;;;;;;;;;1648875;84;21073;-72
2022/05/23 01:20:14;;;;;;;7.92;3.62;;;;;;;;;;1696443;83;21031;-73
2022/05/23 01:22:42;;;;;;;4.20;3.02;;;;;;;;;;1695315;83;21071;-72
2022/05/23 01:25:29;;;;;;;3.55;2.70;;;;;;;;;;1697349;83;21114;-74
2022/05/23 01:27:55;;;;;;;3.10;2.70;;;;;;;;;;1700124;83;21028;-74
2022/05/23 01:30:22;;;;;;;5.33;2.98;;;;;;;;;;1666597;85;21088;-72
2022/05/23 01:32:50;;;;;;;4.90;3.10;;;;;;;;;;1626111;86;21101;-72
2022/05/23 01:35:16;;;;;;;5.12;3.33;;;;;;;;;;1706321;83;21124;-72
2022/05/23 01:37:43;;;;;;;7.90;4.55;;;;;;;;;;1698574;83;21507;-73
2022/05/23 01:40:13;;;;;;;9.78;5.90;;;;;;;;;;1678149;83;21071;-72
2022/05/23 01:42:41;;;;;;;13.38;6.58;;;;;;;;;;1688925;83;21032;-73
2022/05/23 01:45:08;;;;;;;9.18;6.10;;;;;;;;;;1691020;83;21642;-73
2022/05/23 01:47:34;;;;;;;11.40;7.05;;;;;;;;;;1696771;83;21599;-73
2022/05/23 01:50:01;;;;;;;12.47;6.08;;;;;;;;;;1683451;83;21460;-71
2022/05/23 01:52:40;;;;;;;9.98;6.05;;;;;;;;;;1685316;84;21637;-73
2022/05/23 01:55:14;;;;;;;9.13;5.75;;;;;;;;;;1675209;83;21614;-73
2022/05/23 01:57:42;;;;;;;6.72;4.50;;;;;;;;;;1698347;83;21127;-72
2022/05/23 02:02:54;;;;;;;6.40;4.28;;;;;;;;;;1683411;83;21067;-71
2022/05/23 02:05:20;;;;;;;5.53;3.90;;;;;;;;;;1713641;83;21030;-73
2022/05/23 02:07:47;;;;;;;6.40;4.55;;;;;;;;;;1653881;84;21095;-72
2022/05/23 02:10:13;;;;;;;7.50;5.65;;;;;;;;;;1678490;85;21566;-72
2022/05/23 02:12:45;;;;;;;11.18;5.60;;;;;;;;;;1647918;85;21119;-72
2022/05/23 02:15:14;;;;;;;12.60;6.60;;;;;;;;;;1687502;82;21114;-73
2022/05/23 02:17:59;;;;;;;14.65;7.67;;;;;;;;;;1707880;82;21041;-71
2022/05/23 02:20:26;;;;;;;17.25;8.20;;;;;;;;;;1699707;81;21020;-72
2022/05/23 02:22:53;;;;;;;16.35;8.15;;;;;;;;;;1705545;82;21073;-74
2022/05/23 02:25:22;;;;;;;14.78;7.47;;;;;;;;;;1750565;81;21171;-72
2022/05/23 02:27:50;;;;;;;14.05;8.40;;;;;;;;;;1730069;81;21038;-73
2022/05/23 02:30:17;;;;;;;16.62;8.15;;;;;;;;;;1726039;81;21490;-71
2022/05/23 02:32:45;;;;;;;15.60;8.05;;;;;;;;;;1728182;81;21043;-72
2022/05/23 02:35:13;;;;;;;15.93;8.68;;;;;;;;;;1718004;82;21043;-72
2022/05/23 02:37:39;;;;;;;17.42;7.87;;;;;;;;;;1742308;81;20995;-72
2022/05/23 02:40:09;;;;;;;12.85;8.05;;;;;;;;;;1746032;81;21052;-73
2022/05/23 02:42:35;;;;;;;13.32;7.10;;;;;;;;;;1752780;81;21065;-73
2022/05/23 02:45:06;;;;;;;14.58;7.75;;;;;;;;;;1730326;81;21071;-72
2022/05/23 02:47:34;;;;;;;14.87;7.60;;;;;;;;;;1707368;82;21098;-73
2022/05/23 02:50:02;;;;;;;15.50;7.70;;;;;;;;;;1723349;83;21091;-72
2022/05/23 02:52:31;;;;;;;12.00;6.97;;;;;;;;;;1680941;83;21079;-72
2022/05/23 02:54:59;;;;;;;12.05;7.72;;;;;;;;;;1679397;85;21068;-73
2022/05/23 02:57:26;;;;;;;10.72;7.00;;;;;;;;;;1682318;84;21118;-74
2022/05/23 02:59:52;;;;;;;12.85;6.85;;;;;;;;;;1693530;84;21122;-74
2022/05/23 03:05:05;;;;;;;11.68;6.85;;;;;;;;;;1708658;83;21038;-73
2022/05/23 03:07:31;;;;;;;11.45;6.45;;;;;;;;;;1701901;84;21037;-73
2022/05/23 03:09:59;;;;;;;11.73;6.55;;;;;;;;;;1708246;83;21030;-74
2022/05/23 03:12:27;;;;;;;11.20;6.35;;;;;;;;;;1751672;81;21076;-74
2022/05/23 03:14:53;;;;;;;9.58;6.28;;;;;;;;;;1754777;81;21029;-73
2022/05/23 03:17:20;;;;;;;11.15;6.53;;;;;;;;;;1710103;82;21559;-73
2022/05/23 03:19:46;;;;;;;10.30;5.83;;;;;;;;;;1678857;84;21088;-73
2022/05/23 03:27:45;;;;;;;12.18;6.35;;;;;;;;;;1677139;84;21568;-75
2022/05/23 03:30:13;;;;;;;10.10;6.12;;;;;;;;;;1694494;84;21155;-75
2022/05/23 03:32:44;;;;;;;10.65;6.83;;;;;;;;;;1676675;84;21163;-73
2022/05/23 03:35:10;;;;;;;8.23;6.33;;;;;;;;;;1673867;84;21573;-74
2022/05/23 03:37:36;;;;;;;9.50;6.45;;;;;;;;;;1704453;83;21082;-74
2022/05/23 03:40:05;;;;;;;9.23;6.40;;;;;;;;;;1695874;82;21128;-72
2022/05/23 03:42:34;;;;;;;12.58;6.45;;;;;;;;;;1674395;84;21080;-73
2022/05/23 03:45:01;;;;;;;9.80;5.62;;;;;;;;;;1677798;85;21059;-72
2022/05/23 03:47:29;;;;;;;8.08;5.47;;;;;;;;;;1690439;84;21094;-74
2022/05/23 03:49:55;;;;;;;8.73;5.95;;;;;;;;;;1689467;84;21039;-73
2022/05/23 03:52:22;;;;;;;8.43;5.97;;;;;;;;;;1678408;84;21096;-73
2022/05/23 03:54:48;;;;;;;7.92;5.72;;;;;;;;;;1676586;84;21056;-75
2022/05/23 03:57:15;;;;;;;6.80;4.78;;;;;;;;;;1675466;84;21068;-73
2022/05/23 03:59:42;;;;;;;7.47;5.65;;;;;;;;;;1680426;84;21472;-73
2022/05/23 04:02:08;;;;;;;9.15;5.58;;;;;;;;;;1676990;84;21127;-73
2022/05/23 04:04:36;;;;;;;6.90;5.62;;;;;;;;;;1675495;85;21622;-73
2022/05/23 04:07:08;;;;;;;9.03;5.95;;;;;;;;;;1680834;84;21120;-73
2022/05/23 04:09:36;;;;;;;8.40;5.67;;;;;;;;;;1702754;83;21632;-75
2022/05/23 04:12:06;;;;;;;9.73;6.03;;;;;;;;;;1691961;84;21068;-74
2022/05/23 04:14:36;;;;;;;9.98;6.60;;;;;;;;;;1691638;84;21055;-74
2022/05/23 04:17:03;;;;;;;23.62;8.75;;;;;;;;;;1652284;85;21673;-74
2022/05/23 04:19:31;;;;;;;12.20;6.55;;;;;;;;;;1619621;86;21140;-74
2022/05/23 04:22:01;;;;;;;14.45;8.10;;;;;;;;;;1688484;83;21056;-74
2022/05/23 04:24:29;;;;;;;12.68;7.45;;;;;;;;;;1719137;83;21098;-74
2022/05/23 04:26:57;;;;;;;13.95;7.62;;;;;;;;;;1716802;83;21531;-74
2022/05/23 04:29:24;;;;;;;13.03;8.65;;;;;;;;;;1694855;83;21034;-74
2022/05/23 04:31:51;;;;;;;15.23;8.75;;;;;;;;;;1716762;83;21070;-74
2022/05/23 04:37:08;;;;;;;14.73;7.95;;;;;;;;;;1676190;84;21124;-74
2022/05/23 04:39:36;;;;;;;13.78;7.72;;;;;;;;;;1682858;85;21119;-72
2022/05/23 04:42:03;;;;;;;15.35;8.98;;;;;;;;;;1646970;84;21094;-72
2022/05/23 04:44:32;;;;;;;17.48;8.40;;;;;;;;;;1688775;84;21023;-72
2022/05/23 04:49:50;;;;;;;14.90;7.87;;;;;;;;;;1708209;82;21600;-74
2022/05/23 04:52:37;;;;;;;15.90;8.78;;;;;;;;;;1709144;83;21114;-72
2022/05/23 04:55:04;;;;;;;18.80;9.05;;;;;;;;;;1708721;83;21123;-74
2022/05/23 04:57:33;;;;;;;18.02;9.38;;;;;;;;;;1724085;83;21016;-74
2022/05/23 04:59:59;;;;;;;17.48;10.48;;;;;;;;;;1695137;82;21013;-76
2022/05/23 05:02:28;;;;;;;14.43;9.50;;;;;;;;;;1694761;82;21613;-76
2022/05/23 05:04:56;;;;;;;16.70;8.63;;;;;;;;;;1707372;82;21155;-75
2022/05/23 05:07:24;;;;;;;16.55;8.93;;;;;;;;;;1725267;82;21063;-75
2022/05/23 05:09:51;;;;;;;15.70;9.63;;;;;;;;;;1673903;84;21060;-75
2022/05/23 05:12:19;;;;;;;14.23;9.10;;;;;;;;;;1700660;83;21563;-73
2022/05/23 05:14:46;;;;;;;15.68;9.73;;;;;;;;;;1695983;84;21052;-74
2022/05/23 05:17:12;;;;;;;15.38;8.98;;;;;;;;;;1717046;83;21069;-74
2022/05/23 05:19:39;;;;;;;15.25;8.13;;;;;;;;;;1680038;84;21052;-74
2022/05/23 05:22:19;;;;;;;15.53;8.60;;;;;;;;;;1699397;82;21089;-75
2022/05/23 05:25:05;;;;;;;15.32;9.05;;;;;;;;;;1679833;85;21525;-76
2022/05/23 05:27:35;;;;;;;16.23;9.85;;;;;;;;;;1717455;83;21093;-74
2022/05/23 05:30:01;;;;;;;18.75;9.53;;;;;;;;;;1721429;83;21096;-75
2022/05/23 05:32:48;;;;;;;13.15;8.00;;;;;;;;;;1720157;81;21132;-75
2022/05/23 05:35:20;;;;;;;13.55;7.58;;;;;;;;;;1696949;83;21142;-74
2022/05/23 05:37:47;;;;;;;;;;;;;;;;;;1747478;80;21363;-74
2022/05/23 05:40:16;;;;;;;15.05;8.23;;;;;;;;;;1743586;82;20287;-71
2022/05/23 05:42:44;;;;;;;12.88;7.53;;;;;;;;;;1755543;80;21071;-71
2022/05/23 05:45:12;;;;;;;12.58;7.33;;;;;;;;;;1779816;80;21013;-74
2022/05/23 05:47:41;;;;;;;12.25;6.72;;;;;;;;;;1777568;80;21033;-73
2022/05/23 05:50:09;;;;;;;9.73;6.12;;;;;;;;;;1770501;80;21023;-72
2022/05/23 05:52:38;;;;;;;11.78;6.62;;;;;;;;;;1748209;80;21083;-72
2022/05/23 05:55:05;;;;;;;7.90;5.10;;;;;;;;;;1725714;82;21043;-74
2022/05/23 05:57:31;;;;;;;7.30;4.47;;;;;;;;;;1710561;83;21122;-74
2022/05/23 05:59:59;;;;;;;7.50;4.50;;;;;;;;;;1730128;81;21072;-74
2022/05/23 06:02:26;;;;;;;8.20;4.53;;;;;;;;;;1746916;81;21056;-72
2022/05/23 06:04:53;;;;;;;5.58;3.47;;;;;;;;;;1722038;82;21080;-73
2022/05/23 06:12:54;;;;;;;7.22;4.20;;;;;;;;;;1702456;82;21534;-74
2022/05/23 06:15:23;;;;;;;6.62;3.92;;;;;;;;;;1697129;83;21055;-73
2022/05/23 06:17:51;;;;;;;7.15;4.42;;;;;;;;;;1713272;82;21568;-72
2022/05/23 06:20:18;;;;;;;6.42;4.35;;;;;;;;;;1687990;83;21021;-73
2022/05/23 06:22:46;;;;;;;6.50;3.77;;;;;;;;;;1681978;83;21076;-73
2022/05/23 06:25:14;;;;;;;5.95;3.95;;;;;;;;;;1713298;82;21016;-73
2022/05/23 06:27:42;;;;;;;5.60;4.00;;;;;;;;;;1690128;83;22267;-73
2022/05/23 06:30:11;;;;;;;5.97;3.45;;;;;;;;;;1698172;83;21080;-74
2022/05/23 06:32:49;;;;;;;4.50;2.75;;;;;;;;;;1708584;83;21060;-72
2022/05/23 06:35:17;;;;;;;4.03;2.87;;;;;;;;;;1729403;82;21532;-73
2022/05/23 06:37:45;;;;;;;4.60;3.58;;;;;;;;;;1732812;82;21053;-74
2022/05/23 06:40:14;;;;;;;3.90;2.87;;;;;;;;;;1677385;83;21036;-72
2022/05/23 06:43:01;;;;;;;3.33;2.60;;;;;;;;;;1704250;82;21126;-73
2022/05/23 06:45:41;;;;;;;5.80;2.47;;;;;;;;;;1630779;86;21063;-69
2022/05/23 06:48:24;;;;;;;;;;;;;;;;;;1638367;86;21160;-71
2022/05/23 06:50:58;;;;;;;3.80;2.70;;;;;;;;;;1663145;85;20133;-73
2022/05/23 06:53:29;;;;;;;3.25;2.58;;;;;;;;;;1671957;84;21054;-72
2022/05/23 06:56:00;;;;;;;4.05;2.87;;;;;;;;;;1728229;82;21121;-72
2022/05/23 06:58:27;;;;;;;5.00;2.90;;;;;;;;;;1681201;83;21078;-72
2022/05/23 07:00:54;;;;;;;3.72;2.92;;;;;;;;;;1681078;84;21539;-72
2022/05/23 07:03:22;;;;;;;5.80;2.58;;;;;;;;;;1690926;84;21605;-72
2022/05/23 07:14:07;;;;;;;4.00;2.95;;;;;;;;;;1694573;81;21016;-70
2022/05/23 07:16:34;;;;;;;5.05;3.55;;;;;;;;;;1732093;81;20953;-71
2022/05/23 07:19:02;;;;;;;8.35;4.12;;;;;;;;;;1736215;81;21039;-72
2022/05/23 07:21:31;;;;;;;5.12;4.08;;;;;;;;;;1734211;77;21047;-74
2022/05/23 07:24:02;;;;;;;6.33;4.67;;;;;;;;;;1734492;77;21074;-71
2022/05/23 07:26:39;;;;;;;7.05;5.00;;;;;;;;;;1728965;82;21028;-74
2022/05/23 07:29:08;;;;;;;10.68;6.42;;;;;;;;;;1734075;83;21043;-72
2022/05/23 07:31:37;;;;;;;9.48;5.70;;;;;;;;;;1730200;82;21083;-74
2022/05/23 07:34:03;;;;;;;11.00;6.42;;;;;;;;;;1726855;82;21079;-73
2022/05/23 07:36:32;;;;;;;9.63;6.72;;;;;;;;;;1727824;83;21067;-71
2022/05/23 07:39:01;;;;;;;10.85;7.28;;;;;;;;;;1698066;83;21539;-72
2022/05/23 07:41:48;;;;;;;14.23;8.03;;;;;;;;;;1731831;82;21115;-72
2022/05/23 07:44:15;;;;;;;11.55;6.87;;;;;;;;;;1724600;82;21108;-72
2022/05/23 07:46:44;;;;;;;10.63;7.47;;;;;;;;;;1729196;82;21103;-73
2022/05/23 07:49:12;;;;;;;11.70;7.95;;;;;;;;;;1726578;82;21638;-73
2022/05/23 08:03:01;;;;;;;7.83;6.28;;;;;;;;;;1725123;83;21073;-72
2022/05/23 08:05:27;;;;;;;10.00;6.17;;;;;;;;;;1726992;83;21001;-73
2022/05/23 08:07:55;;;;;;;9.60;5.37;;;;;;;;;;1725131;83;21056;-72
2022/05/23 08:10:24;;;;;;;8.50;5.42;;;;;;;;;;1726891;83;21062;-72
2022/05/23 08:12:52;;;;;;;8.28;5.72;;;;;;;;;;1726531;83;21635;-73
2022/05/23 08:15:20;;;;;;;6.45;4.47;;;;;;;;;;1726523;83;21045;-72
2022/05/23 08:17:48;;;;;;;6.72;4.83;;;;;;;;;;1726745;83;20973;-73
2022/05/23 08:20:16;;;;;;;8.28;4.85;;;;;;;;;;1725326;83;21080;-73
2022/05/23 08:22:44;;;;;;;8.50;5.75;;;;;;;;;;1726873;83;21049;-72
2022/05/23 08:25:31;;;;;;;6.90;5.08;;;;;;;;;;1707143;84;21027;-73
2022/05/23 08:27:58;;;;;;;8.30;4.58;;;;;;;;;;1707443;84;21089;-72
2022/05/23 08:30:25;;;;;;;5.28;4.08;;;;;;;;;;1707198;84;21026;-72
2022/05/23 08:32:54;;;;;;;4.85;3.67;;;;;;;;;;1706196;84;21085;-72
2022/05/23 08:35:23;;;;;;;6.20;3.40;;;;;;;;;;1707395;84;21596;-73
2022/05/23 08:37:52;;;;;;;4.08;3.20;;;;;;;;;;1706861;84;21099;-72
2022/05/23 08:40:22;;;;;;;9.20;3.33;;;;;;;;;;1704821;84;21097;-72
2022/05/23 08:42:51;;;;;;;3.70;2.80;;;;;;;;;;1706056;84;21117;-72
2022/05/23 08:45:27;;;;;;;4.20;2.98;;;;;;;;;;1706568;84;21569;-72
2022/05/23 08:48:02;;;;;;;5.42;2.90;;;;;;;;;;1707386;84;21592;-71
2022/05/23 08:50:44;;;;;;;3.65;2.70;;;;;;;;;;1703459;84;21085;-73
2022/05/23 08:53:16;;;;;;;3.70;2.60;;;;;;;;;;1685847;83;21038;-73
2022/05/23 08:55:52;;;;;;;4.60;2.75;;;;;;;;;;1689108;83;21541;-72
2022/05/23 08:58:25;;;;;;;3.83;3.10;;;;;;;;;;1685631;85;21074;-72
2022/05/23 09:00:53;;;;;;;4.37;2.85;;;;;;;;;;1694512;83;21024;-73
2022/05/23 09:03:22;;;;;;;4.55;2.77;;;;;;;;;;1722014;82;21103;-74
2022/05/23 09:05:51;;;;;;;4.53;2.80;;;;;;;;;;1740828;82;21052;-73
2022/05/23 09:08:19;;;;;;;3.62;2.77;;;;;;;;;;1740014;82;21501;-73
2022/05/23 09:11:02;;;;;;;3.98;2.80;;;;;;;;;;1735081;82;21051;-73
2022/05/23 09:13:32;;;;;;;5.28;2.40;;;;;;;;;;1730702;83;21032;-72
2022/05/23 09:16:04;;;;;;;5.62;3.67;;;;;;;;;;1737507;82;21073;-71
2022/05/23 09:18:42;;;;;;;6.75;3.47;;;;;;;;;;1734466;82;21039;-73
2022/05/23 09:21:08;;;;;;;5.12;3.10;;;;;;;;;;1718027;83;21087;-71
2022/05/23 09:23:36;;;;;;;6.50;3.30;;;;;;;;;;1716996;83;21091;-73
2022/05/23 09:26:03;;;;;;;5.78;3.30;;;;;;;;;;1710172;84;21072;-72
2022/05/23 09:28:39;;;;;;;6.55;3.17;;;;;;;;;;1710172;84;21038;-71
2022/05/23 09:31:20;;;;;;;4.70;3.05;;;;;;;;;;1710203;83;21094;-72
2022/05/23 09:33:47;;;;;;;5.83;3.67;;;;;;;;;;1710517;84;21044;-73
2022/05/23 09:36:27;;;;;;;4.83;2.95;;;;;;;;;;1717217;83;21078;-73
2022/05/23 09:38:58;;;;;;;4.75;3.40;;;;;;;;;;1728095;83;21048;-73
2022/05/23 09:49:54;;;;;;;4.83;3.15;;;;;;;;;;1728056;83;21075;-73
2022/05/23 09:52:25;;;;;;;5.03;3.50;;;;;;;;;;1728064;83;22123;-73
2022/05/23 09:54:53;;;;;;;;;;;;;;;;;;1730669;83;21067;-72
2022/05/23 09:57:23;;;;;;;6.75;3.92;;;;;;;;;;1727423;83;20116;-72
2022/05/23 09:59:54;;;;;;;5.55;3.50;;;;;;;;;;1725728;83;21043;-72
2022/05/23 10:02:22;;;;;;;7.20;4.03;;;;;;;;;;1729856;83;21103;-72
2022/05/23 10:04:49;;;;;;;5.45;3.77;;;;;;;;;;1725576;83;21117;-72
2022/05/23 10:07:29;;;;;;;4.97;3.52;;;;;;;;;;1722833;83;21411;-72
2022/05/23 10:09:57;;;;;;;7.00;4.03;;;;;;;;;;1710152;84;21045;-72
2022/05/23 10:12:36;;;;;;;6.75;3.52;;;;;;;;;;1728721;83;21482;-74
2022/05/23 10:15:04;;;;;;;5.37;3.15;;;;;;;;;;1732618;83;21059;-72
2022/05/23 10:17:31;;;;;;;5.85;3.15;;;;;;;;;;1732748;82;21064;-73
2022/05/23 10:19:59;;;;;;;4.03;2.27;;;;;;;;;;1725877;83;20988;-73
2022/05/23 10:22:26;;;;;;;5.78;2.80;;;;;;;;;;1705246;84;21021;-74
2022/05/23 10:24:56;;;;;;;4.00;2.83;;;;;;;;;;1729492;83;21130;-72
2022/05/23 10:27:38;;;;;;;5.55;3.08;;;;;;;;;;1730587;83;20994;-72
2022/05/23 10:30:05;;;;;;;6.30;3.37;;;;;;;;;;1730838;83;21052;-73
2022/05/23 10:32:48;;;;;;;6.22;3.22;;;;;;;;;;1722595;82;21347;-73
2022/05/23 10:35:26;;;;;;;6.12;3.90;;;;;;;;;;1724536;83;21491;-73
2022/05/23 10:37:52;;;;;;;4.87;3.22;;;;;;;;;;1729084;83;21054;-73
2022/05/23 10:43:06;;;;;;;4.92;3.12;;;;;;;;;;1729030;83;21087;-76
2022/05/23 10:45:36;;;;;;;5.37;2.67;;;;;;;;;;1724086;83;21040;-76
2022/05/23 10:48:20;;;;;;;5.65;2.80;;;;;;;;;;1733467;83;21798;-75
2022/05/23 10:50:57;;;;;;;5.08;2.98;;;;;;;;;;1687762;84;21075;-77
2022/05/23 10:53:25;;;;;;;5.20;3.35;;;;;;;;;;1724972;82;21053;-77
2022/05/23 10:55:56;;;;;;;5.08;3.30;;;;;;;;;;1740174;82;21040;-75
2022/05/23 10:58:36;;;;;;;3.80;2.67;;;;;;;;;;1722651;82;21082;-76
2022/05/23 11:01:15;;;;;;;6.33;2.85;;;;;;;;;;1713955;83;21099;-75
2022/05/23 11:03:47;;;;;;;5.33;2.87;;;;;;;;;;1686111;84;21088;-84
2022/05/23 11:06:16;;;;;;;4.15;3.00;;;;;;;;;;1725083;83;21394;-85
2022/05/23 11:09:00;;;;;;;4.35;2.80;;;;;;;;;;1682981;84;21087;-79
2022/05/23 11:11:31;;;;;;;5.58;2.72;;;;;;;;;;1725702;83;21086;-79
2022/05/23 11:13:59;;;;;;;5.60;3.08;;;;;;;;;;1720407;83;21040;-80
2022/05/23 11:16:30;;;;;;;3.70;2.80;;;;;;;;;;1702541;84;21026;-80
2022/05/23 11:19:04;;;;;;;4.17;2.60;;;;;;;;;;1735319;83;21063;-80
2022/05/23 11:21:48;;;;;;;4.58;2.50;;;;;;;;;;1724391;82;21074;-86
2022/05/23 11:24:19;;;;;;;3.37;2.50;;;;;;;;;;1732616;82;21602;-76
2022/05/23 11:26:50;;;;;;;3.87;2.40;;;;;;;;;;1730069;82;21067;-75
2022/05/23 11:34:59;;;;;;;4.42;2.65;;;;;;;;;;1683865;85;21039;-79
2022/05/23 11:40:01;;;;;;;5.72;2.85;;;;;;;;;;1682350;85;21094;-77
2022/05/23 11:42:34;;;;;;;5.53;2.85;;;;;;;;;;1681422;84;21602;-78
2022/05/23 11:45:56;;;;;;;5.87;2.95;;;;;;;;;;1679345;84;21055;-78
2022/05/23 11:47:32;;;;;;;4.62;2.77;;;;;;;;;;1727779;83;21562;-78
2022/05/23 11:50:01;;;;;;;3.47;2.67;;;;;;;;;;1725910;83;21567;-77
2022/05/23 11:52:34;;;;;;;5.03;2.58;;;;;;;;;;1725581;83;21040;-76
2022/05/23 11:55:01;;;;;;;4.08;2.50;;;;;;;;;;1726072;83;21516;-76
2022/05/23 11:57:37;;;;;;;5.50;2.60;;;;;;;;;;1725799;83;21084;-77
2022/05/23 12:00:07;;;;;;;5.03;2.58;;;;;;;;;;1725965;83;21024;-76
2022/05/23 12:02:39;;;;;;;4.78;2.60;;;;;;;;;;1728348;81;21051;-75
2022/05/23 12:05:12;;;;;;;4.50;2.40;;;;;;;;;;1698952;84;21028;-75
2022/05/23 12:07:42;;;;;;;;;;;;;;;;;;1701287;84;21024;-76
2022/05/23 12:10:22;;;;;;;4.03;2.52;;;;;;;;;;1729299;83;20166;-76
2022/05/23 12:12:50;;;;;;;3.08;2.25;;;;;;;;;;1722074;83;21623;-76
2022/05/23 12:15:34;;;;;;;4.42;2.50;;;;;;;;;;1698691;84;21100;-75
2022/05/23 12:18:01;;;;;;;4.05;2.17;;;;;;;;;;1689886;84;21016;-75
2022/05/23 12:20:31;;;;;;;3.12;2.20;;;;;;;;;;1680384;85;21539;-77
2022/05/23 12:23:16;;;;;;;3.65;2.30;;;;;;;;;;1680332;85;21075;-76
2022/05/23 12:25:43;;;;;;;4.28;2.20;;;;;;;;;;1695963;84;21071;-77
2022/05/23 12:28:10;;;;;;;3.22;2.12;;;;;;;;;;1702034;84;21079;-75
2022/05/23 12:30:39;;;;;;;6.10;3.12;;;;;;;;;;1732726;82;21017;-76
2022/05/23 12:33:10;;;;;;;4.37;2.37;;;;;;;;;;1730057;82;21607;-76
2022/05/23 12:35:44;;;;;;;4.08;2.55;;;;;;;;;;1729561;83;21734;-77
2022/05/23 12:38:21;;;;;;;3.27;2.33;;;;;;;;;;1700767;84;21075;-76
2022/05/23 12:40:55;;;;;;;3.47;2.45;;;;;;;;;;1716026;82;21060;-76
2022/05/23 12:43:41;;;;;;;3.62;2.65;;;;;;;;;;1685705;84;21024;-76
2022/05/23 12:46:26;;;;;;;3.37;2.27;;;;;;;;;;1727882;83;21090;-77
2022/05/23 12:48:54;;;;;;;3.85;2.58;;;;;;;;;;1697718;84;21061;-74
2022/05/23 12:51:23;;;;;;;4.62;2.37;;;;;;;;;;1710316;84;21075;-74
2022/05/23 12:53:57;;;;;;;3.95;2.33;;;;;;;;;;1661696;85;21095;-73
2022/05/23 12:56:31;;;;;;;6.15;2.10;;;;;;;;;;1710179;83;21051;-75
2022/05/23 12:58:59;;;;;;;4.62;2.70;;;;;;;;;;1680455;85;21039;-75
2022/05/23 13:01:26;;;;;;;3.83;2.65;;;;;;;;;;1714631;83;21102;-75
2022/05/23 13:03:57;;;;;;;4.05;2.62;;;;;;;;;;1727899;82;21593;-75
2022/05/23 13:06:29;;;;;;;3.22;2.40;;;;;;;;;;1729598;83;21012;-74
2022/05/23 13:08:57;;;;;;;3.65;2.33;;;;;;;;;;1733651;83;21036;-75
2022/05/23 13:11:25;;;;;;;3.45;2.40;;;;;;;;;;1720590;83;21056;-74
2022/05/23 13:13:51;;;;;;;3.72;2.17;;;;;;;;;;1718710;83;21036;-75
2022/05/23 13:16:24;;;;;;;4.22;2.55;;;;;;;;;;1722145;82;21495;-74
2022/05/23 13:27:05;;;;;;;4.25;2.20;;;;;;;;;;1723224;83;21589;-74
2022/05/23 13:29:36;;;;;;;3.60;2.30;;;;;;;;;;1721283;83;21579;-74
2022/05/23 13:32:00;;;;;;;4.08;1.95;;;;;;;;;;1712865;83;20973;-73
2022/05/23 13:34:30;;;;;;;5.17;2.30;;;;;;;;;;1718487;83;21036;-74
2022/05/23 13:36:56;;;;;;;3.67;2.40;;;;;;;;;;1718202;83;21057;-75
2022/05/23 13:39:23;;;;;;;4.65;2.50;;;;;;;;;;1718128;83;21103;-74
2022/05/23 13:41:49;;;;;;;2.92;2.35;;;;;;;;;;1718171;83;21104;-75
2022/05/23 13:44:24;;;;;;;3.12;2.27;;;;;;;;;;1718415;83;21507;-74
2022/05/23 13:46:52;;;;;;;4.40;2.55;;;;;;;;;;1717641;83;21087;-75
2022/05/23 13:49:23;;;;;;;5.42;3.12;;;;;;;;;;1718271;83;21020;-74
2022/05/23 13:51:51;;;;;;;4.70;2.62;;;;;;;;;;1720311;83;21131;-75
2022/05/23 13:54:22;;;;;;;4.62;2.40;;;;;;;;;;1720336;83;21514;-75
2022/05/23 13:56:52;;;;;;;2.75;2.20;;;;;;;;;;1723338;83;21043;-75
2022/05/23 13:59:19;;;;;;;3.15;2.10;;;;;;;;;;1722459;83;22147;-74
2022/05/23 14:01:49;;;;;;;3.72;2.40;;;;;;;;;;1723473;83;21567;-74
2022/05/23 14:04:16;;;;;;;3.15;2.30;;;;;;;;;;1723238;82;21064;-74
2022/05/23 14:06:44;;;;;;;4.58;2.47;;;;;;;;;;1722730;83;21495;-74
2022/05/23 14:09:11;;;;;;;2.70;2.12;;;;;;;;;;1721880;83;20993;-75
2022/05/23 14:11:38;;;;;;;2.40;2.15;;;;;;;;;;1723216;83;21595;-74
2022/05/23 14:14:13;;;;;;;3.92;2.30;;;;;;;;;;1723466;83;21040;-74
2022/05/23 14:16:40;;;;;;;3.22;2.20;;;;;;;;;;1722755;83;21095;-73
2022/05/23 14:19:15;;;;;;;3.35;2.45;;;;;;;;;;1723340;83;22244;-74
2022/05/23 14:21:41;;;;;;;3.62;2.22;;;;;;;;;;1718091;83;21100;-74
2022/05/23 14:24:18;;;;;;;2.72;2.42;;;;;;;;;;1720498;83;21048;-78
2022/05/23 14:26:44;;;;;;;4.37;2.58;;;;;;;;;;1677106;84;20974;-78
2022/05/23 14:29:13;;;;;;;3.10;2.15;;;;;;;;;;1652784;86;22070;-77
2022/05/23 14:31:46;;;;;;;3.27;2.20;;;;;;;;;;1688207;84;20992;-80
2022/05/23 14:34:16;;;;;;;3.35;2.25;;;;;;;;;;1694912;84;21048;-77
2022/05/23 14:36:44;;;;;;;3.83;2.27;;;;;;;;;;1692693;85;21100;-75
2022/05/23 14:39:19;;;;;;;5.25;2.60;;;;;;;;;;1652980;86;21079;-78
2022/05/23 14:44:33;;;;;;;4.42;2.42;;;;;;;;;;1711270;81;70940;-80
2022/05/23 14:47:19;;;;;;;3.50;2.58;;;;;;;;;;1689261;83;21094;-78
2022/05/23 14:50:05;;;;;;;3.90;2.40;;;;;;;;;;1690436;85;21048;-78
2022/05/23 14:52:36;;;;;;;6.67;2.25;;;;;;;;;;1692141;85;21037;-78
2022/05/23 14:55:18;;;;;;;5.10;2.80;;;;;;;;;;1721202;83;21058;-77
2022/05/23 15:00:40;;;;;;;4.17;2.65;;;;;;;;;;1673132;85;21601;-78
2022/05/23 15:03:08;;;;;;;3.90;2.70;;;;;;;;;;1743919;82;21036;-78
2022/05/23 15:05:35;;;;;;;4.25;2.52;;;;;;;;;;1748549;82;21115;-79
2022/05/23 15:08:02;;;;;;;3.98;2.52;;;;;;;;;;1749320;82;21080;-77
2022/05/23 15:10:28;;;;;;;3.22;2.40;;;;;;;;;;1749209;82;21010;-77
2022/05/23 15:12:56;;;;;;;3.20;2.37;;;;;;;;;;1747663;82;21061;-77
2022/05/23 15:15:25;;;;;;;3.87;2.47;;;;;;;;;;1749558;82;21103;-80
2022/05/23 15:17:51;;;;;;;6.85;2.80;;;;;;;;;;1749991;82;21072;-79
2022/05/23 15:20:22;;;;;;;4.03;2.60;;;;;;;;;;1749027;82;21005;-77
2022/05/23 15:22:48;;;;;;;4.47;2.60;;;;;;;;;;1749303;82;21169;-77
2022/05/23 15:25:14;;;;;;;4.20;2.55;;;;;;;;;;1749207;82;21001;-76
2022/05/23 15:27:41;;;;;;;5.92;2.90;;;;;;;;;;1749433;82;21001;-76
2022/05/23 15:30:09;;;;;;;4.22;2.42;;;;;;;;;;1746708;82;21530;-75
2022/05/23 15:32:36;;;;;;;5.15;2.50;;;;;;;;;;1749096;82;21064;-75
2022/05/23 15:35:04;;;;;;;4.95;2.50;;;;;;;;;;1748453;82;21052;-76
2022/05/23 15:37:31;;;;;;;6.83;2.50;;;;;;;;;;1748603;82;21108;-76
2022/05/23 15:39:58;;;;;;;5.95;2.72;;;;;;;;;;1748884;82;21017;-77
2022/05/23 15:42:26;;;;;;;5.67;2.80;;;;;;;;;;1749190;82;21512;-76
2022/05/23 15:44:53;;;;;;;4.28;2.55;;;;;;;;;;1749045;82;21119;-75
2022/05/23 15:47:19;;;;;;;4.22;3.00;;;;;;;;;;1748615;82;22197;-76
2022/05/23 15:49:47;;;;;;;4.00;2.75;;;;;;;;;;1748238;82;21065;-77
2022/05/23 15:52:13;;;;;;;3.58;2.60;;;;;;;;;;1748527;82;21035;-75
2022/05/23 15:54:41;;;;;;;4.70;2.62;;;;;;;;;;1748430;82;22179;-76
2022/05/23 15:57:07;;;;;;;3.77;2.52;;;;;;;;;;1748631;82;21017;-75
2022/05/23 15:59:34;;;;;;;4.75;2.72;;;;;;;;;;1721327;82;21563;-76
2022/05/23 16:02:00;;;;;;;4.50;2.77;;;;;;;;;;1753916;82;21055;-76
2022/05/23 16:04:27;;;;;;;5.03;2.67;;;;;;;;;;1753800;82;21020;-74
2022/05/23 16:06:56;;;;;;;4.97;3.05;;;;;;;;;;1753433;82;21507;-76
2022/05/23 16:09:23;;;;;;;7.80;2.72;;;;;;;;;;1753732;82;21072;-76
2022/05/23 16:11:50;;;;;;;3.77;2.70;;;;;;;;;;1752503;82;21073;-75
2022/05/23 16:14:16;;;;;;;6.80;2.60;;;;;;;;;;1753573;82;21036;-75
2022/05/23 16:16:43;;;;;;;3.58;2.62;;;;;;;;;;1753824;82;21016;-77
2022/05/23 16:19:09;;;;;;;4.33;2.60;;;;;;;;;;1754013;82;21040;-77
2022/05/23 16:21:37;;;;;;;4.55;2.83;;;;;;;;;;1753777;82;21609;-77